Time;durP1;ratioP1;P1;durP2;ratioP2;P2;SDS_P1;SDS_P2;PMS_P1;PMS_P2;Temp;Humidity;BMP_temperature;BMP_pressure;BME280_temperature;BME280_humidity;BME280_pressure;Samples;Min_cycle;Max_cycle;Signal;HPM_P1;HPM_P2
2021/03/21 00:00:12;;;;;;;4.35;3.15;;;3.10;99.90;;;;;;5116573;28;20195;-71
2021/03/21 00:02:41;;;;;;;8.60;3.50;;;3.20;99.90;;;;;;5116474;28;20175;-70
2021/03/21 00:05:10;;;;;;;4.88;3.80;;;3.20;99.90;;;;;;5115185;28;20214;-68
2021/03/21 00:07:37;;;;;;;5.18;3.45;;;3.10;99.90;;;;;;5115374;28;20207;-70
2021/03/21 00:10:05;;;;;;;4.32;3.85;;;3.20;99.90;;;;;;5116580;28;20260;-70
2021/03/21 00:12:33;;;;;;;3.85;3.50;;;3.20;99.90;;;;;;5116443;28;20230;-69
2021/03/21 00:15:09;;;;;;;7.50;4.05;;;3.20;99.90;;;;;;5118228;28;20187;-70
2021/03/21 00:17:36;;;;;;;5.18;3.42;;;3.30;99.90;;;;;;5120563;27;20625;-69
2021/03/21 00:20:06;;;;;;;4.63;3.45;;;3.30;99.90;;;;;;5119952;28;20210;-68
2021/03/21 00:22:34;;;;;;;3.97;3.58;;;3.20;99.90;;;;;;5119963;28;20189;-69
2021/03/21 00:25:00;;;;;;;6.32;5.00;;;3.20;99.90;;;;;;5119970;28;20191;-69
2021/03/21 00:27:29;;;;;;;4.93;3.90;;;3.20;99.90;;;;;;5119898;28;20197;-68
2021/03/21 00:29:57;;;;;;;9.25;4.85;;;3.30;99.90;;;;;;5120102;28;20201;-68
2021/03/21 00:32:24;;;;;;;5.70;3.60;;;3.30;99.90;;;;;;5120584;28;20198;-69
2021/03/21 00:34:52;;;;;;;6.22;4.20;;;3.30;99.90;;;;;;5120130;28;20561;-69
2021/03/21 00:37:22;;;;;;;4.93;3.70;;;3.40;99.90;;;;;;5119830;28;20182;-70
2021/03/21 00:39:49;;;;;;;9.23;3.20;;;3.40;99.90;;;;;;5119070;28;20561;-70
2021/03/21 00:42:15;;;;;;;5.22;3.15;;;3.50;99.90;;;;;;5120139;28;20183;-69
2021/03/21 00:44:42;;;;;;;4.15;3.50;;;3.40;99.90;;;;;;5120015;27;20190;-69
2021/03/21 00:47:08;;;;;;;4.03;3.72;;;3.40;99.90;;;;;;5120062;27;20203;-69
2021/03/21 00:49:36;;;;;;;5.72;3.30;;;3.40;99.90;;;;;;5119202;28;20263;-69
2021/03/21 00:52:03;;;;;;;3.90;3.03;;;3.40;99.90;;;;;;5119375;28;20226;-70
2021/03/21 00:54:29;;;;;;;3.22;2.92;;;3.40;99.90;;;;;;5119926;28;20604;-70
2021/03/21 00:56:56;;;;;;;5.43;3.10;;;3.40;99.90;;;;;;5119483;28;20190;-70
2021/03/21 00:59:24;;;;;;;6.72;3.30;;;3.40;99.90;;;;;;5119260;28;20206;-69
2021/03/21 01:01:50;;;;;;;2.50;2.30;;;3.40;99.90;;;;;;5119461;28;20201;-68
2021/03/21 01:04:17;;;;;;;4.80;3.08;;;3.40;99.90;;;;;;5117048;28;20305;-69
2021/03/21 01:06:43;;;;;;;4.07;2.97;;;3.40;99.90;;;;;;5117690;28;20214;-69
2021/03/21 01:09:14;;;;;;;5.53;2.83;;;3.30;99.90;;;;;;5118715;28;20186;-69
2021/03/21 01:11:41;;;;;;;3.90;3.60;;;3.30;99.90;;;;;;5118661;28;20739;-69
2021/03/21 01:14:09;;;;;;;6.28;2.85;;;3.20;99.90;;;;;;5118850;28;20559;-71
2021/03/21 01:16:39;;;;;;;4.60;3.10;;;3.20;99.90;;;;;;5118434;28;20191;-70
2021/03/21 01:19:24;;;;;;;4.90;3.95;;;3.20;99.90;;;;;;5117993;28;20263;-71
2021/03/21 01:21:51;;;;;;;3.10;2.80;;;3.30;99.90;;;;;;5118518;28;20202;-69
2021/03/21 01:24:22;;;;;;;3.42;2.95;;;3.30;99.90;;;;;;5118382;28;20190;-70
2021/03/21 01:26:54;;;;;;;4.22;3.03;;;3.20;99.90;;;;;;5117684;28;20257;-70
2021/03/21 01:29:21;;;;;;;2.97;2.67;;;3.20;99.90;;;;;;5118537;28;20187;-70
2021/03/21 01:31:54;;;;;;;3.42;2.85;;;3.20;99.90;;;;;;5118195;28;20223;-70
2021/03/21 01:34:20;;;;;;;4.72;3.17;;;3.10;99.90;;;;;;5118820;28;20186;-69
2021/03/21 01:36:46;;;;;;;3.17;2.88;;;3.10;99.90;;;;;;5118037;28;20199;-70
2021/03/21 01:39:24;;;;;;;2.67;2.40;;;3.10;99.90;;;;;;5118735;28;20202;-70
2021/03/21 01:42:03;;;;;;;4.47;2.70;;;3.30;99.90;;;;;;5117272;28;20217;-70
2021/03/21 01:44:30;;;;;;;2.70;2.45;;;3.30;99.90;;;;;;5118608;28;20206;-69
2021/03/21 01:46:57;;;;;;;2.60;2.38;;;3.30;99.90;;;;;;5118189;28;20247;-69
2021/03/21 01:49:36;;;;;;;3.05;2.70;;;3.30;99.90;;;;;;5118110;28;20198;-69
2021/03/21 01:52:07;;;;;;;7.10;2.65;;;3.30;99.90;;;;;;5118256;28;20210;-69
2021/03/21 01:54:34;;;;;;;6.10;2.13;;;3.20;99.90;;;;;;5118276;27;20211;-69
2021/03/21 01:57:02;;;;;;;3.40;2.30;;;3.20;99.90;;;;;;5118196;28;20199;-69
2021/03/21 01:59:35;;;;;;;2.90;2.53;;;3.20;99.90;;;;;;5117804;28;20182;-70
2021/03/21 02:02:05;;;;;;;5.47;2.22;;;3.20;99.90;;;;;;5116410;28;20203;-68
2021/03/21 02:04:32;;;;;;;5.88;2.95;;;3.20;99.90;;;;;;5115574;28;20202;-68
2021/03/21 02:07:20;;;;;;;2.47;2.28;;;3.20;99.90;;;;;;5115599;28;20183;-68
2021/03/21 02:10:10;;;;;;;4.70;2.40;;;3.30;99.90;;;;;;5115413;27;20240;-68
2021/03/21 02:13:06;;;;;;;2.40;2.20;;;3.20;99.90;;;;;;5115783;28;20598;-69
2021/03/21 02:15:43;;;;;;;5.82;2.90;;;3.30;99.90;;;;;;5115895;28;20175;-69
2021/03/21 02:18:23;;;;;;;2.55;2.00;;;3.30;99.90;;;;;;5115738;28;20177;-69
2021/03/21 02:21:08;;;;;;;3.47;2.50;;;3.30;99.90;;;;;;5115236;28;20182;-68
2021/03/21 02:23:57;;;;;;;4.25;1.92;;;3.40;99.90;;;;;;5115113;28;20634;-68
2021/03/21 02:26:36;;;;;;;3.17;2.00;;;3.40;99.90;;;;;;5114076;28;20211;-69
2021/03/21 02:29:42;;;;;;;4.22;2.30;;;3.50;99.90;;;;;;5115346;28;20632;-68
2021/03/21 02:32:14;;;;;;;2.30;2.08;;;3.50;99.90;;;;;;5114920;28;20241;-69
2021/03/21 02:35:18;;;;;;;2.90;1.88;;;3.60;99.90;;;;;;5115068;28;20186;-69
2021/03/21 02:37:54;;;;;;;2.75;2.40;;;3.60;99.90;;;;;;5114685;27;20558;-69
2021/03/21 02:40:31;;;;;;;3.55;2.20;;;3.60;99.90;;;;;;5114927;28;20189;-69
2021/03/21 02:43:16;;;;;;;1.95;1.85;;;3.60;99.90;;;;;;5115099;28;20253;-69
2021/03/21 02:45:48;;;;;;;3.60;2.00;;;3.50;99.90;;;;;;5115070;28;20175;-69
2021/03/21 02:48:27;;;;;;;1.98;1.83;;;3.50;99.90;;;;;;5114764;28;20167;-69
2021/03/21 02:51:01;;;;;;;3.08;2.75;;;3.50;99.90;;;;;;5114644;28;20388;-69
2021/03/21 02:53:42;;;;;;;2.10;1.92;;;3.40;99.90;;;;;;5115370;28;20182;-69
2021/03/21 02:56:13;;;;;;;2.65;2.45;;;3.50;99.90;;;;;;5115435;28;20196;-69
2021/03/21 02:59:02;;;;;;;5.15;2.25;;;3.50;99.90;;;;;;5115163;27;20572;-69
2021/03/21 03:01:34;;;;;;;2.78;2.10;;;3.50;99.90;;;;;;5114586;28;20203;-69
2021/03/21 03:04:10;;;;;;;3.65;1.63;;;3.60;99.90;;;;;;5114700;28;20596;-69
2021/03/21 03:06:51;;;;;;;4.50;1.75;;;3.60;99.90;;;;;;5114500;28;20218;-69
2021/03/21 03:09:32;;;;;;;3.35;1.77;;;3.60;99.90;;;;;;5114466;28;20194;-69
2021/03/21 03:12:09;;;;;;;2.92;1.85;;;3.60;99.90;;;;;;5114745;28;20230;-69
2021/03/21 03:14:40;;;;;;;5.78;2.47;;;3.60;99.90;;;;;;5114491;28;20220;-69
2021/03/21 03:17:09;;;;;;;3.67;2.05;;;3.50;99.90;;;;;;5113022;28;20260;-69
2021/03/21 03:19:55;;;;;;;3.22;1.70;;;3.60;99.90;;;;;;5114497;28;20554;-69
2021/03/21 03:22:25;;;;;;;3.67;2.22;;;3.60;99.90;;;;;;5114397;28;20182;-69
2021/03/21 03:25:08;;;;;;;4.43;2.20;;;3.60;99.90;;;;;;5114390;28;20207;-69
2021/03/21 03:27:47;;;;;;;3.85;2.00;;;3.60;99.90;;;;;;5114215;28;20181;-69
2021/03/21 03:30:18;;;;;;;2.95;2.05;;;3.60;99.90;;;;;;5114134;27;20210;-69
2021/03/21 03:32:45;;;;;;;3.72;1.40;;;3.60;99.90;;;;;;5114096;28;20255;-69
2021/03/21 03:35:16;;;;;;;2.75;2.15;;;3.50;99.90;;;;;;5114104;28;20191;-69
2021/03/21 03:37:43;;;;;;;1.83;1.73;;;3.50;99.90;;;;;;5114262;28;20205;-69
2021/03/21 03:40:12;;;;;;;2.03;1.92;;;3.50;99.90;;;;;;5114085;28;20199;-69
2021/03/21 03:42:52;;;;;;;1.60;1.50;;;3.50;99.90;;;;;;5114061;28;20175;-69
2021/03/21 03:45:24;;;;;;;2.75;1.85;;;3.60;99.90;;;;;;5114335;28;20539;-69
2021/03/21 03:47:57;;;;;;;3.28;1.70;;;3.60;99.90;;;;;;5113897;28;20190;-69
2021/03/21 03:50:53;;;;;;;2.65;2.45;;;3.60;99.90;;;;;;5115567;28;20295;-69
2021/03/21 03:53:46;;;;;;;2.28;1.95;;;3.60;99.90;;;;;;5118025;28;20253;-69
2021/03/21 03:56:18;;;;;;;3.55;2.50;;;3.50;99.90;;;;;;5117419;28;20198;-69
2021/03/21 03:58:53;;;;;;;2.95;2.22;;;3.40;99.90;;;;;;5118051;28;20216;-69
2021/03/21 04:01:46;;;;;;;3.55;2.60;;;3.30;99.90;;;;;;5117672;28;20196;-69
2021/03/21 04:04:28;;;;;;;2.45;2.28;;;3.30;99.90;;;;;;5103614;28;20195;-69
2021/03/21 04:07:15;;;;;;;2.95;2.42;;;3.20;99.90;;;;;;5117342;28;20198;-69
2021/03/21 04:09:56;;;;;;;2.40;2.30;;;3.30;99.90;;;;;;5117340;28;20202;-69
2021/03/21 04:12:34;;;;;;;4.38;2.45;;;3.30;99.90;;;;;;5117440;28;20226;-69
2021/03/21 04:15:21;;;;;;;4.82;2.28;;;3.20;99.90;;;;;;5117385;28;20187;-69
2021/03/21 04:18:26;;;;;;;3.58;2.60;;;3.30;99.90;;;;;;5117831;28;20206;-69
2021/03/21 04:21:13;;;;;;;3.33;2.20;;;3.20;99.90;;;;;;5095196;28;20203;-69
2021/03/21 04:24:06;;;;;;;2.80;2.60;;;3.20;99.90;;;;;;5116590;28;20206;-69
2021/03/21 04:27:18;;;;;;;3.15;2.22;;;3.20;99.90;;;;;;5118138;28;20220;-69
2021/03/21 04:30:00;;;;;;;2.85;2.30;;;3.10;99.90;;;;;;5112232;28;20209;-69
2021/03/21 04:32:41;;;;;;;11.57;2.70;;;3.20;99.90;;;;;;5117462;28;20231;-69
2021/03/21 04:35:13;;;;;;;4.00;3.03;;;3.10;99.90;;;;;;5117304;28;20194;-69
2021/03/21 04:37:44;;;;;;;2.35;2.15;;;3.10;99.90;;;;;;5117230;28;20202;-69
2021/03/21 04:40:15;;;;;;;2.65;2.45;;;3.10;99.90;;;;;;5117493;28;20175;-69
2021/03/21 04:42:54;;;;;;;4.13;2.60;;;3.10;99.90;;;;;;5116052;28;20179;-69
2021/03/21 04:45:30;;;;;;;3.42;3.10;;;3.10;99.90;;;;;;5117369;28;20574;-69
2021/03/21 04:48:01;;;;;;;2.90;2.60;;;3.10;99.90;;;;;;5116973;28;20179;-69
2021/03/21 04:50:30;;;;;;;3.53;3.22;;;3.10;99.90;;;;;;5116944;28;20747;-69
2021/03/21 04:53:14;;;;;;;5.15;2.92;;;3.10;99.90;;;;;;5117087;28;20222;-69
2021/03/21 04:55:45;;;;;;;8.75;3.40;;;3.20;99.90;;;;;;5116921;28;20619;-69
2021/03/21 04:58:25;;;;;;;4.70;2.67;;;3.20;99.90;;;;;;5117134;28;20212;-69
2021/03/21 05:01:02;;;;;;;3.78;3.25;;;3.10;99.90;;;;;;5116762;28;20175;-69
2021/03/21 05:03:42;;;;;;;2.85;2.63;;;3.10;99.90;;;;;;5117176;28;20182;-69
2021/03/21 05:06:32;;;;;;;3.20;2.90;;;3.10;99.90;;;;;;5117166;28;20175;-69
2021/03/21 05:09:03;;;;;;;4.75;3.72;;;3.10;99.90;;;;;;5116705;28;20171;-69
2021/03/21 05:11:38;;;;;;;5.00;3.70;;;3.10;99.90;;;;;;5116600;28;20202;-69
2021/03/21 05:14:44;;;;;;;12.02;2.90;;;3.00;99.90;;;;;;5116540;28;20202;-69
2021/03/21 05:17:19;;;;;;;4.30;3.28;;;3.10;99.90;;;;;;5093843;28;20615;-69
2021/03/21 05:20:15;;;;;;;3.13;2.80;;;3.10;99.90;;;;;;5113236;28;20236;-69
2021/03/21 05:23:10;;;;;;;4.40;3.10;;;3.10;99.90;;;;;;5116742;28;20617;-69
2021/03/21 05:25:43;;;;;;;5.13;3.65;;;3.10;99.90;;;;;;5116610;28;20598;-69
2021/03/21 05:28:32;;;;;;;3.83;3.45;;;3.10;99.90;;;;;;5116397;28;20186;-69
2021/03/21 05:30:58;;;;;;;3.88;3.50;;;3.00;99.90;;;;;;5116348;28;20210;-69
2021/03/21 05:33:28;;;;;;;7.15;4.10;;;3.00;99.90;;;;;;5116248;28;20194;-69
2021/03/21 05:35:58;;;;;;;6.80;4.13;;;3.10;99.90;;;;;;5116239;28;20190;-69
2021/03/21 05:38:58;;;;;;;4.63;3.90;;;3.10;99.90;;;;;;5116266;28;20194;-69
2021/03/21 05:41:47;;;;;;;6.38;4.80;;;3.00;99.90;;;;;;5111908;28;20210;-69
2021/03/21 05:44:14;;;;;;;7.60;4.30;;;3.00;99.90;;;;;;5116231;28;20277;-69
2021/03/21 05:46:56;;;;;;;5.72;4.25;;;3.00;99.90;;;;;;5115980;28;20186;-69
2021/03/21 05:49:53;;;;;;;6.93;4.40;;;3.00;99.90;;;;;;5116221;27;20627;-69
2021/03/21 05:52:50;;;;;;;6.72;4.40;;;2.90;99.90;;;;;;5115970;28;20214;-69
2021/03/21 05:55:50;;;;;;;14.07;11.10;;;2.90;99.90;;;;;;5115899;28;20245;-69
2021/03/21 05:58:48;;;;;;;5.75;4.75;;;2.90;99.90;;;;;;5115964;28;20188;-69
2021/03/21 06:01:45;;;;;;;8.00;5.10;;;2.90;99.90;;;;;;5100467;28;20204;-69
2021/03/21 06:04:46;;;;;;;5.50;5.00;;;3.00;99.90;;;;;;5115670;28;20194;-69
2021/03/21 06:07:48;;;;;;;7.55;5.05;;;3.10;99.90;;;;;;5116149;28;20186;-69
2021/03/21 06:10:39;;;;;;;6.95;5.47;;;3.10;99.90;;;;;;5115351;27;20170;-69
2021/03/21 06:13:24;;;;;;;6.72;5.22;;;3.10;99.90;;;;;;5113986;28;20214;-69
2021/03/21 06:16:33;;;;;;;5.97;5.30;;;3.10;99.90;;;;;;5100244;28;20605;-69
2021/03/21 06:19:11;;;;;;;6.72;5.20;;;3.20;99.90;;;;;;5115614;28;20194;-69
2021/03/21 06:22:04;;;;;;;7.18;5.10;;;3.10;99.90;;;;;;5102531;28;20210;-69
2021/03/21 06:24:54;;;;;;;7.95;5.10;;;3.20;99.90;;;;;;5114376;28;20190;-69
2021/03/21 06:27:32;;;;;;;7.60;5.90;;;3.20;99.90;;;;;;5112706;28;20199;-68
2021/03/21 06:30:18;;;;;;;8.77;5.93;;;3.20;99.90;;;;;;5101236;28;20243;-69
2021/03/21 06:33:21;;;;;;;7.78;5.82;;;3.20;99.90;;;;;;5114509;28;20234;-69
2021/03/21 06:36:05;;;;;;;7.70;5.88;;;3.30;99.90;;;;;;5111368;28;20676;-69
2021/03/21 06:39:02;;;;;;;7.13;6.15;;;3.30;99.90;;;;;;5114728;28;20210;-69
2021/03/21 06:41:50;;;;;;;10.75;6.60;;;3.20;99.90;;;;;;5114950;28;20190;-69
2021/03/21 06:44:28;;;;;;;9.48;6.28;;;3.30;99.90;;;;;;5114993;28;20194;-69
2021/03/21 06:47:15;;;;;;;13.20;6.35;;;3.20;99.90;;;;;;5114756;28;20171;-69
2021/03/21 06:50:01;;;;;;;8.35;6.88;;;3.10;99.90;;;;;;5114545;27;20591;-69
2021/03/21 06:53:13;;;;;;;12.77;7.40;;;3.10;99.90;;;;;;5114747;27;20231;-68
2021/03/21 06:56:06;;;;;;;9.25;7.35;;;3.10;99.90;;;;;;5114950;27;20195;-69
2021/03/21 06:59:06;;;;;;;10.95;8.13;;;3.10;99.90;;;;;;5114684;28;20751;-68
2021/03/21 07:01:40;;;;;;;10.57;8.10;;;3.00;99.90;;;;;;5114690;28;20213;-69
2021/03/21 07:04:27;;;;;;;15.35;7.80;;;3.10;99.90;;;;;;5114450;28;20289;-69
2021/03/21 07:07:18;;;;;;;8.68;7.78;;;3.10;99.90;;;;;;5114457;28;20174;-68
2021/03/21 07:09:53;;;;;;;12.90;9.32;;;3.10;99.90;;;;;;5114205;28;20251;-69
2021/03/21 07:12:39;;;;;;;12.68;8.40;;;3.10;99.90;;;;;;5114420;28;20198;-69
2021/03/21 07:15:49;;;;;;;16.10;9.32;;;3.20;99.90;;;;;;5114008;28;20198;-69
2021/03/21 07:18:33;;;;;;;12.15;7.82;;;3.20;99.90;;;;;;5114369;28;20649;-69
2021/03/21 07:21:30;;;;;;;10.55;7.57;;;3.20;99.90;;;;;;5114353;28;20178;-69
2021/03/21 07:24:19;;;;;;;13.63;7.70;;;3.30;99.90;;;;;;5113459;28;20677;-69
2021/03/21 07:27:07;;;;;;;10.40;8.40;;;3.30;99.90;;;;;;5114472;28;20179;-69
2021/03/21 07:30:19;;;;;;;12.63;8.20;;;3.40;99.90;;;;;;5114324;28;20646;-69
2021/03/21 07:33:27;;;;;;;13.18;8.65;;;3.40;99.90;;;;;;5071291;28;20310;-69
2021/03/21 07:36:21;;;;;;;9.77;7.82;;;3.40;99.90;;;;;;5114351;28;20544;-69
2021/03/21 07:39:00;;;;;;;9.93;8.25;;;3.70;99.90;;;;;;5113965;28;20281;-69
2021/03/21 07:41:53;;;;;;;10.52;9.27;;;3.80;99.90;;;;;;5114396;28;20170;-69
2021/03/21 07:44:28;;;;;;;15.07;8.75;;;3.90;99.90;;;;;;5114058;28;20179;-69
2021/03/21 07:47:09;;;;;;;11.55;8.45;;;3.90;99.90;;;;;;5114103;28;20178;-69
2021/03/21 07:49:45;;;;;;;15.10;8.40;;;4.20;99.90;;;;;;5113773;28;20219;-69
2021/03/21 07:52:40;;;;;;;14.18;8.93;;;4.20;99.90;;;;;;5114157;28;20257;-69
2021/03/21 07:55:21;;;;;;;9.02;7.00;;;4.30;99.90;;;;;;5113650;28;20198;-69
2021/03/21 07:58:07;;;;;;;7.90;7.10;;;4.20;99.90;;;;;;5113908;28;20261;-69
2021/03/21 08:00:34;;;;;;;11.63;7.75;;;4.20;99.90;;;;;;5113974;28;20185;-70
2021/03/21 08:03:20;;;;;;;9.43;7.40;;;4.20;99.90;;;;;;5113636;28;20195;-70
2021/03/21 08:05:56;;;;;;;7.85;6.70;;;4.30;99.90;;;;;;5113694;28;20183;-69
2021/03/21 08:08:32;;;;;;;12.82;7.15;;;4.40;99.90;;;;;;5113917;28;20212;-67
2021/03/21 08:11:02;;;;;;;8.65;6.70;;;4.40;99.90;;;;;;5113820;28;20201;-68
2021/03/21 08:13:38;;;;;;;7.85;7.05;;;4.50;99.90;;;;;;5113680;28;20218;-70
2021/03/21 08:16:05;;;;;;;8.85;7.00;;;4.70;99.90;;;;;;5113647;28;20307;-69
2021/03/21 08:18:37;;;;;;;9.80;6.20;;;4.60;99.90;;;;;;5113693;28;20627;-68
2021/03/21 08:21:12;;;;;;;7.35;6.55;;;4.50;99.90;;;;;;5113486;28;20201;-68
2021/03/21 08:23:41;;;;;;;8.13;6.50;;;4.50;99.90;;;;;;5113492;28;20194;-68
2021/03/21 08:26:12;;;;;;;10.35;7.32;;;4.50;99.90;;;;;;5114262;28;20205;-68
2021/03/21 08:29:07;;;;;;;10.68;5.75;;;4.60;99.90;;;;;;5113638;28;20194;-68
2021/03/21 08:31:42;;;;;;;11.32;6.65;;;4.50;99.90;;;;;;5113042;28;20217;-68
2021/03/21 08:34:30;;;;;;;7.97;6.65;;;4.50;99.90;;;;;;5113579;28;20241;-68
2021/03/21 08:37:30;;;;;;;8.38;6.35;;;4.50;99.90;;;;;;5117155;28;20312;-68
2021/03/21 08:40:14;;;;;;;9.43;7.15;;;4.60;99.90;;;;;;5117276;28;20175;-68
2021/03/21 08:42:44;;;;;;;7.53;6.65;;;4.70;99.90;;;;;;5117216;28;20266;-68
2021/03/21 08:45:13;;;;;;;9.75;7.85;;;4.70;99.90;;;;;;5116810;28;20213;-68
2021/03/21 08:47:43;;;;;;;10.07;7.13;;;4.90;99.90;;;;;;5117403;28;20629;-68
2021/03/21 08:50:35;;;;;;;9.63;6.68;;;5.00;99.90;;;;;;5116744;28;20663;-68
2021/03/21 08:53:05;;;;;;;10.02;6.57;;;5.00;99.90;;;;;;5116732;28;20221;-68
2021/03/21 08:55:35;;;;;;;12.77;6.60;;;4.90;99.90;;;;;;5116797;28;20225;-68
2021/03/21 08:58:21;;;;;;;7.60;6.72;;;4.80;99.90;;;;;;5116512;27;20197;-68
2021/03/21 09:00:50;;;;;;;7.78;6.70;;;4.80;99.90;;;;;;5116889;28;20191;-68
2021/03/21 09:03:30;;;;;;;8.40;6.47;;;4.70;99.90;;;;;;5116529;28;20191;-68
2021/03/21 09:06:00;;;;;;;8.68;6.38;;;4.90;99.90;;;;;;5116568;28;20239;-68
2021/03/21 09:08:30;;;;;;;8.52;7.22;;;5.00;99.90;;;;;;5117057;27;20351;-68
2021/03/21 09:11:02;;;;;;;9.93;6.80;;;5.10;99.90;;;;;;5116440;28;20197;-68
2021/03/21 09:13:35;;;;;;;8.85;6.85;;;5.20;99.90;;;;;;5116524;28;20578;-68
2021/03/21 09:16:07;;;;;;;8.50;6.60;;;5.10;99.90;;;;;;5116315;28;20569;-68
2021/03/21 09:18:42;;;;;;;10.13;7.35;;;5.20;99.90;;;;;;5114994;28;20199;-69
2021/03/21 09:21:15;;;;;;;8.23;6.65;;;5.30;99.90;;;;;;5116303;28;20170;-68
2021/03/21 09:23:46;;;;;;;8.88;6.95;;;5.50;99.90;;;;;;5116398;27;20213;-68
2021/03/21 09:26:12;;;;;;;7.47;6.75;;;5.50;99.90;;;;;;5116394;28;20189;-68
2021/03/21 09:28:42;;;;;;;8.68;5.75;;;5.50;99.90;;;;;;5116113;28;20660;-68
2021/03/21 09:31:11;;;;;;;8.35;6.05;;;5.80;99.90;;;;;;5116164;28;20218;-68
2021/03/21 09:33:44;;;;;;;7.65;6.78;;;5.50;99.90;;;;;;5116136;28;20236;-68
2021/03/21 09:36:28;;;;;;;8.10;6.55;;;5.60;99.90;;;;;;5116296;28;20178;-68
2021/03/21 09:39:08;;;;;;;7.90;6.55;;;5.70;99.90;;;;;;5116027;27;20195;-68
2021/03/21 09:41:35;;;;;;;9.70;7.18;;;5.70;99.90;;;;;;5114677;28;20567;-68
2021/03/21 09:44:05;;;;;;;9.90;6.38;;;5.50;99.90;;;;;;5116495;27;20203;-68
2021/03/21 09:46:52;;;;;;;9.18;7.55;;;5.20;99.90;;;;;;5115676;28;20662;-68
2021/03/21 09:49:43;;;;;;;8.65;7.47;;;5.10;99.90;;;;;;5116073;27;20203;-68
2021/03/21 09:52:19;;;;;;;7.70;6.53;;;5.20;99.90;;;;;;5116429;28;20683;-68
2021/03/21 09:55:06;;;;;;;7.20;6.50;;;4.90;99.90;;;;;;5115994;28;20249;-68
2021/03/21 09:57:47;;;;;;;11.77;7.20;;;4.70;99.90;;;;;;5115840;28;20187;-68
2021/03/21 10:00:25;;;;;;;11.10;7.20;;;4.90;99.90;;;;;;5115715;28;20179;-68
2021/03/21 10:03:02;;;;;;;9.63;7.03;;;4.90;99.90;;;;;;5115341;28;20630;-68
2021/03/21 10:05:56;;;;;;;8.82;7.65;;;4.90;99.90;;;;;;5115667;28;20614;-70
2021/03/21 10:08:41;;;;;;;8.75;6.43;;;4.90;99.90;;;;;;5095938;28;20206;-70
2021/03/21 10:11:10;;;;;;;7.03;6.32;;;5.10;99.90;;;;;;5115554;28;20190;-70
2021/03/21 10:13:44;;;;;;;13.68;6.90;;;5.10;99.90;;;;;;5114169;28;20217;-70
2021/03/21 10:16:25;;;;;;;7.78;6.85;;;5.10;99.90;;;;;;5115369;28;20614;-68
2021/03/21 10:19:05;;;;;;;8.30;6.75;;;5.20;99.90;;;;;;5115882;27;20561;-68
2021/03/21 10:21:37;;;;;;;10.63;8.00;;;5.20;99.90;;;;;;5115574;28;20629;-68
2021/03/21 10:24:12;;;;;;;10.07;9.02;;;5.50;99.90;;;;;;5115772;28;20195;-68
2021/03/21 10:27:24;;;;;;;8.15;7.18;;;5.50;99.90;;;;;;5115662;28;20178;-68
2021/03/21 10:30:28;;;;;;;9.75;7.18;;;5.50;99.90;;;;;;5111870;28;20658;-70
2021/03/21 10:33:01;;;;;;;13.02;8.20;;;5.40;99.90;;;;;;5115195;28;20234;-69
2021/03/21 10:35:31;;;;;;;10.70;6.88;;;5.70;99.90;;;;;;5114720;28;20201;-69
2021/03/21 10:38:29;;;;;;;8.10;7.28;;;6.00;99.90;;;;;;5114199;28;20219;-69
2021/03/21 10:40:55;;;;;;;7.78;6.80;;;6.30;99.90;;;;;;5113949;28;20292;-69
2021/03/21 10:43:23;;;;;;;9.77;7.25;;;6.10;99.90;;;;;;5114287;28;20198;-69
2021/03/21 10:45:55;;;;;;;11.10;7.05;;;6.20;99.90;;;;;;5114238;28;20194;-69
2021/03/21 10:48:25;;;;;;;7.88;6.88;;;6.30;99.90;;;;;;5100115;28;20197;-69
2021/03/21 10:50:54;;;;;;;8.55;7.00;;;6.60;99.90;;;;;;5114420;28;20689;-69
2021/03/21 10:53:32;;;;;;;8.13;6.88;;;6.40;99.90;;;;;;5114103;28;20218;-69
2021/03/21 10:56:02;;;;;;;9.18;7.05;;;6.30;99.90;;;;;;5114368;28;20193;-69
2021/03/21 10:58:35;;;;;;;10.60;7.80;;;6.40;99.90;;;;;;5114393;28;20221;-69
2021/03/21 11:01:21;;;;;;;8.68;7.80;;;6.50;99.90;;;;;;5112957;27;20205;-69
2021/03/21 11:03:58;;;;;;;8.05;6.90;;;6.50;99.90;;;;;;5112254;28;20232;-68
2021/03/21 11:06:27;;;;;;;10.20;7.90;;;6.40;99.90;;;;;;5113892;28;20214;-68
2021/03/21 11:08:54;;;;;;;11.20;8.25;;;6.40;99.90;;;;;;5114414;28;20201;-69
2021/03/21 11:11:35;;;;;;;11.50;8.27;;;6.50;99.90;;;;;;5114948;28;20202;-69
2021/03/21 11:14:26;;;;;;;9.98;8.30;;;6.80;99.90;;;;;;5114692;28;20225;-69
2021/03/21 11:17:17;;;;;;;8.35;7.40;;;6.70;99.90;;;;;;5114554;28;20179;-69
2021/03/21 11:19:58;;;;;;;11.65;7.85;;;6.80;99.90;;;;;;5114142;28;20194;-69
2021/03/21 11:22:30;;;;;;;8.77;7.88;;;6.60;99.90;;;;;;5112534;28;20217;-68
2021/03/21 11:24:57;;;;;;;9.05;7.57;;;6.50;99.90;;;;;;5113830;28;20194;-68
2021/03/21 11:27:30;;;;;;;10.48;7.40;;;6.80;99.90;;;;;;5114103;28;20201;-69
2021/03/21 11:30:20;;;;;;;18.92;10.20;;;6.80;99.90;;;;;;5112849;28;20256;-68
2021/03/21 11:32:46;;;;;;;9.65;8.63;;;6.50;99.90;;;;;;5114342;28;20209;-67
2021/03/21 11:35:28;;;;;;;9.90;8.85;;;6.50;99.90;;;;;;5112994;28;20213;-69
2021/03/21 11:37:57;;;;;;;12.13;8.43;;;6.40;99.90;;;;;;5114730;28;20194;-69
2021/03/21 11:40:35;;;;;;;9.25;8.30;;;6.50;99.90;;;;;;5113899;28;20590;-68
2021/03/21 11:43:06;;;;;;;12.23;8.23;;;6.70;99.90;;;;;;5114201;28;20179;-69
2021/03/21 11:45:36;;;;;;;10.68;8.70;;;6.60;99.90;;;;;;5112922;28;20202;-69
2021/03/21 11:48:08;;;;;;;14.13;9.15;;;6.70;99.90;;;;;;5114078;28;20207;-68
2021/03/21 11:50:37;;;;;;;10.40;8.10;;;6.60;99.90;;;;;;5114081;28;20226;-75
2021/03/21 11:53:07;;;;;;;11.93;8.95;;;7.10;99.90;;;;;;5114076;28;20220;-75
2021/03/21 11:55:41;;;;;;;12.30;8.80;;;7.30;99.90;;;;;;5114010;28;20179;-68
2021/03/21 11:58:26;;;;;;;12.55;9.18;;;6.80;99.90;;;;;;5114811;28;20541;-68
2021/03/21 12:01:13;;;;;;;10.63;8.60;;;6.60;99.90;;;;;;5114265;28;20579;-68
2021/03/21 12:03:49;;;;;;;9.68;8.68;;;6.60;99.90;;;;;;5113996;28;20202;-69
2021/03/21 12:06:21;;;;;;;10.57;8.60;;;6.60;99.90;;;;;;5115030;28;20224;-68
2021/03/21 12:08:51;;;;;;;11.00;9.10;;;6.50;99.90;;;;;;5113821;28;20634;-69
2021/03/21 12:11:33;;;;;;;10.85;8.82;;;6.80;99.90;;;;;;5116521;28;20662;-68
2021/03/21 12:14:27;;;;;;;11.85;9.55;;;6.90;99.90;;;;;;5117834;28;20206;-69
2021/03/21 12:16:56;;;;;;;11.93;9.05;;;7.10;99.90;;;;;;5118504;28;20198;-68
2021/03/21 12:19:23;;;;;;;10.48;9.15;;;7.30;99.90;;;;;;5118304;28;20191;-68
2021/03/21 12:21:56;;;;;;;9.73;8.07;;;7.50;99.90;;;;;;5118332;27;20183;-68
2021/03/21 12:24:25;;;;;;;13.15;8.77;;;7.50;99.90;;;;;;5117927;28;20185;-68
2021/03/21 12:26:53;;;;;;;11.02;8.95;;;7.50;99.90;;;;;;5118068;28;20713;-67
2021/03/21 12:29:23;;;;;;;12.13;7.90;;;7.30;99.90;;;;;;5118394;28;20194;-68
2021/03/21 12:31:55;;;;;;;9.50;7.80;;;7.40;99.90;;;;;;5119165;28;20297;-69
2021/03/21 12:34:34;;;;;;;8.27;7.45;;;7.50;99.90;;;;;;5119692;28;20229;-67
2021/03/21 12:37:16;;;;;;;10.50;7.95;;;7.60;99.90;;;;;;5119653;28;20182;-68
2021/03/21 12:40:10;;;;;;;8.85;7.13;;;7.60;99.90;;;;;;5118412;28;20205;-68
2021/03/21 12:42:48;;;;;;;8.90;7.97;;;7.90;99.90;;;;;;5118507;28;20206;-69
2021/03/21 12:45:18;;;;;;;9.68;8.10;;;7.90;99.90;;;;;;5117372;28;20166;-69
2021/03/21 12:48:04;;;;;;;9.00;8.10;;;7.90;99.90;;;;;;5117507;28;20568;-68
2021/03/21 12:50:43;;;;;;;9.10;7.28;;;7.70;99.90;;;;;;5115772;28;20230;-69
2021/03/21 12:53:18;;;;;;;8.95;7.38;;;7.50;99.90;;;;;;5117386;28;20547;-69
2021/03/21 12:55:45;;;;;;;8.55;6.90;;;7.60;99.90;;;;;;5117028;28;20209;-68
2021/03/21 12:58:12;;;;;;;7.25;6.55;;;7.70;99.90;;;;;;5117243;28;20658;-70
2021/03/21 13:00:38;;;;;;;9.70;7.78;;;7.70;99.90;;;;;;5116910;28;20190;-72
2021/03/21 13:03:07;;;;;;;12.20;8.73;;;7.60;99.90;;;;;;5115671;28;20196;-68
2021/03/21 13:05:40;;;;;;;12.52;9.00;;;7.60;99.90;;;;;;5117086;28;20221;-69
2021/03/21 13:08:08;;;;;;;10.75;8.90;;;7.50;99.90;;;;;;5117427;28;20177;-69
2021/03/21 13:10:37;;;;;;;10.50;8.95;;;7.50;99.90;;;;;;5116991;28;20614;-68
2021/03/21 13:13:07;;;;;;;12.85;10.82;;;7.40;99.90;;;;;;5116256;28;20222;-67
2021/03/21 13:15:34;;;;;;;10.63;8.82;;;7.20;99.90;;;;;;5116628;28;20187;-68
2021/03/21 13:18:00;;;;;;;14.27;9.35;;;7.20;99.90;;;;;;5115348;28;20195;-68
2021/03/21 13:20:27;;;;;;;11.32;8.55;;;7.50;99.90;;;;;;5116595;28;20203;-68
2021/03/21 13:22:53;;;;;;;10.93;9.52;;;7.50;99.90;;;;;;5114951;28;20206;-68
2021/03/21 13:25:31;;;;;;;9.93;8.60;;;7.70;99.90;;;;;;5098731;28;20282;-68
2021/03/21 13:28:03;;;;;;;11.25;8.38;;;7.70;99.90;;;;;;5116342;28;20198;-69
2021/03/21 13:30:38;;;;;;;9.63;8.18;;;7.60;99.90;;;;;;5116512;28;20233;-68
2021/03/21 13:33:06;;;;;;;12.05;9.30;;;7.80;99.90;;;;;;5116628;27;20229;-67
2021/03/21 13:35:33;;;;;;;9.48;7.88;;;7.60;99.90;;;;;;5116565;28;20634;-68
2021/03/21 13:38:00;;;;;;;9.38;8.35;;;7.60;99.90;;;;;;5116431;28;20210;-70
2021/03/21 13:40:48;;;;;;;10.57;8.43;;;7.70;99.90;;;;;;5116165;28;20191;-70
2021/03/21 13:43:16;;;;;;;10.23;8.32;;;7.70;99.90;;;;;;5116567;28;20214;-68
2021/03/21 13:45:44;;;;;;;11.98;8.60;;;7.80;99.90;;;;;;5117050;28;20194;-70
2021/03/21 13:48:13;;;;;;;13.57;9.52;;;7.80;99.90;;;;;;5117849;28;20186;-70
2021/03/21 13:50:40;;;;;;;9.20;7.68;;;8.10;99.90;;;;;;5117859;28;20230;-70